Time;durP1;ratioP1;P1;durP2;ratioP2;P2;SDS_P1;SDS_P2;PMS_P1;PMS_P2;Temp;Humidity;BMP_temperature;BMP_pressure;BME280_temperature;BME280_humidity;BME280_pressure;Samples;Min_cycle;Max_cycle;Signal;HPM_P1;HPM_P2
2021/09/11 00:01:20;;;;;;;14.67;11.60;;;19.60;88.40;;;;;;4946445;28;20520;-43
2021/09/11 00:03:49;;;;;;;11.83;10.63;;;19.70;88.20;;;;;;4950700;28;20530;-43
2021/09/11 00:06:17;;;;;;;12.90;11.07;;;19.70;88.00;;;;;;4949369;28;20522;-43
2021/09/11 00:08:43;;;;;;;11.93;10.50;;;19.60;88.00;;;;;;4947890;28;20456;-43
2021/09/11 00:11:10;;;;;;;13.33;11.30;;;19.60;88.00;;;;;;4949402;28;20498;-43
2021/09/11 00:13:38;;;;;;;12.40;11.10;;;19.60;87.80;;;;;;4950564;28;20482;-43
2021/09/11 00:16:05;;;;;;;13.00;11.43;;;19.60;87.80;;;;;;4948394;28;20949;-43
2021/09/11 00:18:32;;;;;;;13.23;11.93;;;19.60;88.00;;;;;;4950638;28;20463;-43
2021/09/11 00:20:59;;;;;;;14.27;10.90;;;19.50;88.20;;;;;;4945695;28;20998;-43
2021/09/11 00:23:26;;;;;;;14.37;12.87;;;19.50;88.30;;;;;;4946159;28;20471;-43
2021/09/11 00:25:53;;;;;;;12.93;11.63;;;19.50;88.30;;;;;;4947447;28;20458;-43
2021/09/11 00:28:19;;;;;;;16.00;12.93;;;19.50;88.30;;;;;;4949281;28;20481;-43
2021/09/11 00:30:46;;;;;;;13.23;11.80;;;19.50;88.20;;;;;;4946886;28;20487;-43
2021/09/11 00:33:13;;;;;;;17.40;11.80;;;19.40;88.40;;;;;;4946754;28;20464;-43
2021/09/11 00:35:40;;;;;;;13.27;11.87;;;19.40;88.40;;;;;;4951136;28;20466;-43
2021/09/11 00:38:06;;;;;;;13.00;11.67;;;19.40;88.30;;;;;;4944300;28;20470;-43
2021/09/11 00:40:36;;;;;;;14.60;13.10;;;19.40;88.40;;;;;;4949692;28;20467;-43
2021/09/11 00:43:02;;;;;;;13.10;11.30;;;19.50;88.50;;;;;;4943149;28;20471;-43
2021/09/11 00:45:29;;;;;;;14.33;12.70;;;19.40;88.60;;;;;;4948709;28;20469;-43
2021/09/11 00:47:56;;;;;;;15.97;11.40;;;19.40;88.70;;;;;;4946690;28;20467;-43
2021/09/11 00:50:23;;;;;;;14.27;12.80;;;19.40;88.90;;;;;;4949341;28;20470;-43
2021/09/11 00:52:50;;;;;;;14.77;13.27;;;19.40;88.80;;;;;;4949045;28;20797;-43
2021/09/11 00:55:18;;;;;;;16.60;13.47;;;19.40;89.00;;;;;;4947509;29;20467;-43
2021/09/11 00:57:46;;;;;;;15.40;13.00;;;19.40;89.00;;;;;;4948795;28;20465;-43
2021/09/11 01:00:14;;;;;;;13.83;12.30;;;19.40;89.10;;;;;;4946743;28;20467;-43
2021/09/11 01:02:41;;;;;;;15.33;13.73;;;19.40;89.10;;;;;;4943508;28;20470;-43
2021/09/11 01:05:09;;;;;;;16.40;13.70;;;19.40;89.10;;;;;;4947548;28;20463;-43
2021/09/11 01:07:39;;;;;;;14.50;12.90;;;19.50;89.10;;;;;;4943803;28;20888;-43
2021/09/11 01:10:07;;;;;;;16.07;13.13;;;19.50;89.10;;;;;;4948688;28;22144;-43
2021/09/11 01:12:34;;;;;;;15.43;13.27;;;19.50;89.10;;;;;;4947042;28;20494;-43
2021/09/11 01:15:06;;;;;;;16.53;12.73;;;19.50;89.10;;;;;;4942837;28;20530;-43
2021/09/11 01:17:34;;;;;;;16.30;13.40;;;19.50;89.20;;;;;;4947695;28;20463;-43
2021/09/11 01:20:01;;;;;;;16.37;14.07;;;19.50;89.20;;;;;;4943714;29;20467;-43
2021/09/11 01:22:28;;;;;;;14.63;12.90;;;19.50;89.30;;;;;;4946169;28;20463;-43
2021/09/11 01:24:57;;;;;;;15.37;13.80;;;19.50;89.20;;;;;;4944744;28;20471;-43
2021/09/11 01:27:25;;;;;;;14.73;13.17;;;19.50;89.10;;;;;;4945006;28;20497;-43
2021/09/11 01:29:57;;;;;;;18.33;13.90;;;19.50;89.10;;;;;;4946154;28;20486;-43
2021/09/11 01:32:26;;;;;;;15.67;13.40;;;19.50;89.10;;;;;;4943397;28;20487;-43
2021/09/11 01:34:53;;;;;;;16.30;13.60;;;19.50;89.20;;;;;;4943432;28;20828;-43
2021/09/11 01:37:20;;;;;;;16.30;13.57;;;19.50;89.30;;;;;;4948145;28;20700;-43
2021/09/11 01:39:48;;;;;;;15.77;13.53;;;19.50;89.20;;;;;;4943755;28;20455;-43
2021/09/11 01:42:20;;;;;;;15.17;13.37;;;19.50;89.30;;;;;;4943907;28;20999;-44
2021/09/11 01:44:47;;;;;;;17.53;15.20;;;19.50;89.30;;;;;;4944132;28;20502;-43
2021/09/11 01:47:15;;;;;;;17.93;13.70;;;19.50;89.40;;;;;;4948649;28;20471;-43
2021/09/11 01:49:42;;;;;;;15.77;13.57;;;19.50;89.40;;;;;;4941281;29;20470;-43
2021/09/11 01:52:10;;;;;;;16.33;13.57;;;19.50;89.50;;;;;;4942554;28;20487;-43
2021/09/11 01:54:38;;;;;;;15.50;13.67;;;19.50;89.40;;;;;;4946783;28;20459;-43
2021/09/11 01:57:06;;;;;;;18.10;13.90;;;19.50;89.40;;;;;;4944797;28;20836;-43
2021/09/11 01:59:33;;;;;;;18.60;12.50;;;19.50;89.40;;;;;;4944882;29;20976;-43
2021/09/11 02:02:01;;;;;;;15.63;13.00;;;19.50;89.40;;;;;;4945704;28;20841;-43
2021/09/11 02:04:28;;;;;;;16.73;14.70;;;19.50;89.30;;;;;;4945775;28;20503;-43
2021/09/11 02:06:55;;;;;;;15.67;12.73;;;19.50;89.40;;;;;;4947675;28;20464;-43
2021/09/11 02:09:22;;;;;;;15.80;13.53;;;19.50;89.40;;;;;;4948069;28;20459;-43
2021/09/11 02:11:48;;;;;;;16.27;14.30;;;19.50;89.20;;;;;;4951025;28;20515;-43
2021/09/11 02:14:18;;;;;;;14.33;12.67;;;19.50;89.30;;;;;;4942380;28;20483;-44
2021/09/11 02:16:44;;;;;;;17.00;13.60;;;19.50;89.20;;;;;;4949240;28;20468;-46
2021/09/11 02:19:11;;;;;;;14.10;12.60;;;19.50;89.30;;;;;;4950626;28;21044;-46
2021/09/11 02:21:38;;;;;;;14.33;12.83;;;19.50;89.10;;;;;;4950306;28;20447;-46
2021/09/11 02:24:07;;;;;;;14.77;12.20;;;19.50;89.00;;;;;;4951510;28;20463;-46
2021/09/11 02:26:34;;;;;;;14.23;12.73;;;19.50;88.80;;;;;;4948839;28;20830;-46
2021/09/11 02:29:03;;;;;;;17.00;13.57;;;19.50;88.90;;;;;;4947190;28;21099;-46
2021/09/11 02:31:30;;;;;;;14.00;12.50;;;19.50;88.90;;;;;;4949052;28;20491;-46
2021/09/11 02:33:57;;;;;;;16.20;13.93;;;19.40;88.90;;;;;;4948826;28;20459;-46
2021/09/11 02:36:24;;;;;;;17.73;13.47;;;19.50;88.80;;;;;;4947109;28;20461;-46
2021/09/11 02:38:51;;;;;;;15.77;13.50;;;19.50;88.70;;;;;;4948918;28;20470;-47
2021/09/11 02:41:17;;;;;;;15.87;12.57;;;19.40;88.80;;;;;;4942533;29;20549;-46
2021/09/11 02:43:44;;;;;;;15.80;14.10;;;19.40;89.00;;;;;;4946104;28;20474;-46
2021/09/11 02:46:11;;;;;;;14.93;13.00;;;19.40;89.00;;;;;;4943826;28;21001;-47
2021/09/11 02:48:38;;;;;;;14.87;13.37;;;19.40;88.90;;;;;;4949289;28;20467;-46
2021/09/11 02:51:04;;;;;;;16.70;13.70;;;19.30;89.00;;;;;;4950153;28;20982;-46
2021/09/11 02:53:31;;;;;;;17.30;12.33;;;19.30;88.80;;;;;;4943753;29;20474;-47
2021/09/11 02:55:58;;;;;;;15.83;14.17;;;19.30;88.60;;;;;;4948313;29;20459;-47
2021/09/11 02:58:25;;;;;;;15.77;13.67;;;19.30;88.70;;;;;;4944829;28;21016;-47
2021/09/11 03:00:52;;;;;;;14.77;13.00;;;19.30;88.70;;;;;;4941639;28;20458;-47
2021/09/11 03:03:19;;;;;;;14.77;13.17;;;19.30;88.80;;;;;;4946980;28;20534;-47
2021/09/11 03:05:46;;;;;;;16.00;13.17;;;19.30;88.60;;;;;;4948935;28;21050;-47
2021/09/11 03:08:14;;;;;;;16.20;12.90;;;19.20;88.70;;;;;;4950412;28;20455;-47
2021/09/11 03:10:45;;;;;;;18.17;13.60;;;19.20;88.80;;;;;;4953596;28;20451;-47
2021/09/11 03:13:12;;;;;;;15.73;13.33;;;19.20;88.90;;;;;;4949293;28;20494;-47
2021/09/11 03:15:38;;;;;;;14.70;13.23;;;19.20;88.80;;;;;;4951862;28;20490;-47
2021/09/11 03:18:07;;;;;;;18.23;13.60;;;19.20;88.90;;;;;;4950398;28;20481;-47
2021/09/11 03:20:34;;;;;;;16.17;13.63;;;19.20;88.90;;;;;;4946972;28;20454;-47
2021/09/11 03:23:01;;;;;;;16.83;13.63;;;19.10;89.10;;;;;;4947463;28;20474;-46
2021/09/11 03:25:28;;;;;;;14.30;12.80;;;19.10;89.10;;;;;;4944789;28;20463;-46
2021/09/11 03:27:56;;;;;;;18.23;14.07;;;19.10;89.20;;;;;;4946310;28;20841;-47
2021/09/11 03:30:25;;;;;;;17.37;14.97;;;19.10;89.20;;;;;;4949700;28;21376;-47
2021/09/11 03:32:51;;;;;;;17.00;13.77;;;19.10;89.30;;;;;;4945361;28;21003;-47
2021/09/11 03:35:18;;;;;;;19.23;13.63;;;19.10;89.30;;;;;;4962087;28;20458;-47
2021/09/11 03:37:45;;;;;;;16.00;13.30;;;19.10;89.40;;;;;;4947471;28;20459;-47
2021/09/11 03:40:11;;;;;;;17.23;15.20;;;19.10;89.50;;;;;;4946090;28;20466;-47
2021/09/11 03:42:38;;;;;;;16.17;14.43;;;19.10;89.50;;;;;;4953676;28;20478;-46
2021/09/11 03:45:05;;;;;;;16.73;12.70;;;19.10;89.40;;;;;;4946723;28;20464;-46
2021/09/11 03:47:32;;;;;;;16.10;14.40;;;19.10;89.50;;;;;;4946216;28;20815;-46
2021/09/11 03:49:59;;;;;;;15.57;13.50;;;19.10;89.50;;;;;;4947918;28;20502;-46
2021/09/11 03:52:25;;;;;;;17.70;13.53;;;19.10;89.50;;;;;;4949506;28;20494;-46
2021/09/11 03:54:55;;;;;;;17.37;13.90;;;19.10;89.50;;;;;;4947280;28;20475;-47
2021/09/11 03:57:21;;;;;;;14.60;12.73;;;19.10;89.40;;;;;;4946123;28;20903;-47
2021/09/11 03:59:48;;;;;;;15.70;13.50;;;19.10;89.30;;;;;;4948148;29;20459;-50
2021/09/11 04:02:15;;;;;;;17.17;13.90;;;19.10;89.40;;;;;;4946494;28;20466;-46
2021/09/11 04:04:42;;;;;;;17.13;13.03;;;19.10;89.40;;;;;;4948524;28;20814;-46
2021/09/11 04:07:09;;;;;;;16.03;14.23;;;19.10;89.40;;;;;;4943358;28;20463;-47
2021/09/11 04:09:35;;;;;;;16.10;13.97;;;19.10;89.30;;;;;;4945459;28;20471;-47
2021/09/11 04:12:02;;;;;;;16.40;13.30;;;19.10;89.10;;;;;;4946671;28;21052;-47
2021/09/11 04:14:29;;;;;;;17.17;14.77;;;19.10;89.10;;;;;;4949323;28;20517;-46
2021/09/11 04:16:56;;;;;;;18.10;14.20;;;19.10;89.10;;;;;;4946721;28;20983;-46
2021/09/11 04:19:22;;;;;;;17.97;13.70;;;19.10;89.20;;;;;;4947864;28;20459;-47
2021/09/11 04:21:49;;;;;;;15.93;13.90;;;19.10;89.30;;;;;;4945595;28;20479;-47
2021/09/11 04:24:18;;;;;;;15.47;12.83;;;19.10;89.30;;;;;;4947272;28;20490;-47
2021/09/11 04:26:46;;;;;;;17.40;14.20;;;19.10;89.40;;;;;;4948237;28;20463;-46
2021/09/11 04:29:15;;;;;;;14.87;13.23;;;19.10;89.40;;;;;;4946498;28;20470;-46
2021/09/11 04:31:42;;;;;;;16.17;13.10;;;19.10;89.40;;;;;;4961492;28;20527;-46
2021/09/11 04:34:09;;;;;;;15.53;13.37;;;19.10;89.50;;;;;;4947588;28;20467;-46
2021/09/11 04:36:35;;;;;;;15.33;13.47;;;19.10;89.50;;;;;;4947559;28;20470;-47
2021/09/11 04:39:02;;;;;;;16.53;14.80;;;19.10;89.50;;;;;;4945779;28;20464;-47
2021/09/11 04:41:29;;;;;;;16.20;13.40;;;19.10;89.60;;;;;;4948829;28;20773;-47
2021/09/11 04:43:56;;;;;;;17.37;14.60;;;19.10;89.60;;;;;;4948264;28;20487;-47
2021/09/11 04:46:22;;;;;;;19.10;13.40;;;19.10;89.60;;;;;;4947697;28;20468;-46
2021/09/11 04:48:49;;;;;;;15.20;13.60;;;19.10;89.70;;;;;;4948506;28;20478;-46
2021/09/11 04:51:16;;;;;;;15.77;13.40;;;19.10;89.70;;;;;;4944179;28;20491;-47
2021/09/11 04:53:42;;;;;;;15.67;13.80;;;19.10;89.70;;;;;;4943562;28;20590;-46
2021/09/11 04:56:09;;;;;;;17.90;13.80;;;19.10;89.70;;;;;;4949853;28;20469;-46
2021/09/11 04:58:36;;;;;;;17.70;14.47;;;19.10;89.70;;;;;;4949800;29;20485;-46
2021/09/11 05:01:02;;;;;;;17.57;13.60;;;19.10;89.70;;;;;;4944762;28;20499;-47
2021/09/11 05:03:30;;;;;;;16.37;13.87;;;19.10;89.80;;;;;;4945191;28;20473;-46
2021/09/11 05:05:59;;;;;;;16.23;13.47;;;19.10;89.80;;;;;;4951286;28;20467;-47
2021/09/11 05:08:26;;;;;;;18.50;13.73;;;19.10;89.80;;;;;;4947213;28;20589;-47
2021/09/11 05:10:55;;;;;;;18.23;15.77;;;19.10;89.80;;;;;;4945788;28;20466;-47
2021/09/11 05:13:22;;;;;;;19.77;14.33;;;19.10;89.80;;;;;;4945684;28;20487;-46
2021/09/11 05:15:49;;;;;;;16.40;13.30;;;19.10;89.80;;;;;;4946844;28;20720;-46
2021/09/11 05:18:16;;;;;;;21.97;14.20;;;19.10;89.80;;;;;;4943623;28;20474;-46
2021/09/11 05:20:42;;;;;;;17.57;14.10;;;19.10;89.80;;;;;;4947981;28;20468;-46
2021/09/11 05:23:09;;;;;;;18.93;13.97;;;19.10;89.80;;;;;;4947720;28;20486;-46
2021/09/11 05:25:36;;;;;;;14.60;11.93;;;19.10;89.80;;;;;;4948455;28;20972;-47
2021/09/11 05:28:03;;;;;;;17.07;13.50;;;19.10;89.80;;;;;;4945339;28;20538;-47
2021/09/11 05:30:30;;;;;;;16.03;13.10;;;19.10;89.80;;;;;;4946699;28;20455;-47
2021/09/11 05:32:56;;;;;;;18.20;14.00;;;19.20;89.80;;;;;;4944265;28;20487;-46
2021/09/11 05:35:24;;;;;;;18.33;13.93;;;19.20;89.70;;;;;;4947690;29;20461;-46
2021/09/11 05:37:51;;;;;;;14.60;12.47;;;19.20;89.70;;;;;;4941932;28;20467;-47
2021/09/11 05:40:20;;;;;;;17.80;13.60;;;19.20;89.70;;;;;;4948347;28;20460;-47
2021/09/11 05:42:46;;;;;;;16.20;12.17;;;19.20;89.60;;;;;;4947124;28;20447;-47
2021/09/11 05:45:14;;;;;;;16.67;12.97;;;19.20;89.50;;;;;;4947979;29;20507;-46
2021/09/11 05:47:40;;;;;;;15.73;12.53;;;19.20;89.30;;;;;;4948990;28;20468;-47
2021/09/11 05:50:09;;;;;;;14.03;11.63;;;19.20;89.20;;;;;;4946424;28;20476;-47
2021/09/11 05:52:36;;;;;;;15.80;13.03;;;19.20;89.10;;;;;;4945455;28;20487;-47
2021/09/11 05:55:03;;;;;;;21.77;12.07;;;19.20;89.10;;;;;;4945282;28;20465;-47
2021/09/11 05:57:29;;;;;;;16.90;12.70;;;19.20;89.10;;;;;;4945060;28;20519;-47
2021/09/11 05:59:56;;;;;;;19.10;13.37;;;19.20;89.00;;;;;;4941196;29;20486;-46
2021/09/11 06:02:23;;;;;;;16.00;12.57;;;19.30;88.90;;;;;;4944994;28;20515;-47
2021/09/11 06:04:50;;;;;;;17.40;13.30;;;19.30;88.90;;;;;;4948797;28;20988;-47
2021/09/11 06:07:18;;;;;;;14.87;12.50;;;19.30;88.90;;;;;;4949755;28;20469;-47
2021/09/11 06:09:44;;;;;;;13.73;11.67;;;19.30;88.90;;;;;;4948908;28;20538;-47
2021/09/11 06:12:11;;;;;;;18.63;12.37;;;19.30;89.00;;;;;;4947382;28;20495;-47
2021/09/11 06:14:39;;;;;;;12.60;10.67;;;19.30;89.00;;;;;;4947220;28;20862;-46
2021/09/11 06:17:07;;;;;;;14.13;11.53;;;19.30;89.10;;;;;;4944945;28;20467;-47
2021/09/11 06:19:35;;;;;;;16.13;11.63;;;19.30;89.10;;;;;;4943397;28;20473;-46
2021/09/11 06:22:02;;;;;;;13.03;11.67;;;19.30;89.20;;;;;;4945760;28;20808;-47
2021/09/11 06:24:29;;;;;;;14.10;11.17;;;19.30;89.20;;;;;;4941813;28;20463;-47
2021/09/11 06:26:56;;;;;;;14.10;11.43;;;19.30;89.10;;;;;;4948305;28;20459;-46
2021/09/11 06:29:23;;;;;;;14.13;12.07;;;19.30;89.00;;;;;;4945252;28;20459;-47
2021/09/11 06:31:50;;;;;;;17.93;12.20;;;19.40;89.00;;;;;;4945854;29;20475;-47
2021/09/11 06:34:17;;;;;;;14.43;11.40;;;19.40;89.00;;;;;;4944101;28;20471;-47
2021/09/11 06:36:44;;;;;;;14.73;13.23;;;19.40;89.00;;;;;;4945722;29;20452;-46
2021/09/11 06:39:10;;;;;;;13.33;11.73;;;19.40;89.00;;;;;;4946838;28;20465;-47
2021/09/11 06:41:37;;;;;;;16.43;11.77;;;19.40;89.00;;;;;;4950435;28;20462;-47
2021/09/11 06:44:05;;;;;;;14.70;12.37;;;19.40;88.90;;;;;;4948733;28;21065;-47
2021/09/11 06:46:32;;;;;;;12.80;11.00;;;19.50;88.80;;;;;;4950097;28;20474;-47
2021/09/11 06:48:59;;;;;;;15.80;12.17;;;19.50;88.80;;;;;;4944355;29;20893;-47
2021/09/11 06:51:26;;;;;;;14.87;10.90;;;19.50;88.80;;;;;;4953617;28;20752;-47
2021/09/11 06:53:53;;;;;;;14.17;11.90;;;19.50;88.70;;;;;;4950664;28;20488;-47
2021/09/11 06:56:20;;;;;;;14.10;11.90;;;19.50;88.70;;;;;;4950333;28;20534;-47
2021/09/11 06:58:47;;;;;;;16.33;12.40;;;19.60;88.70;;;;;;4951609;28;20447;-47
2021/09/11 07:01:13;;;;;;;14.93;11.00;;;19.60;88.40;;;;;;4966904;28;21004;-47
2021/09/11 07:03:42;;;;;;;13.50;11.43;;;19.70;88.40;;;;;;4946869;28;20949;-46
2021/09/11 07:06:13;;;;;;;14.97;10.63;;;19.70;88.30;;;;;;4950797;28;20949;-46
2021/09/11 07:08:40;;;;;;;15.17;12.17;;;19.80;87.80;;;;;;4948085;28;20447;-47
2021/09/11 07:11:11;;;;;;;18.33;13.50;;;19.80;87.90;;;;;;4955104;28;20465;-47
2021/09/11 07:13:38;;;;;;;14.70;11.60;;;19.80;88.00;;;;;;4951773;28;20497;-46
2021/09/11 07:16:07;;;;;;;12.97;10.47;;;19.90;88.10;;;;;;4951666;28;20517;-46
2021/09/11 07:18:34;;;;;;;12.50;10.90;;;19.90;87.90;;;;;;4949806;28;20495;-47
2021/09/11 07:21:02;;;;;;;13.87;11.17;;;20.00;87.80;;;;;;4947340;29;20458;-47
2021/09/11 07:23:29;;;;;;;14.50;11.17;;;20.00;87.50;;;;;;4952692;28;20466;-47
2021/09/11 07:25:56;;;;;;;14.40;10.90;;;20.00;87.60;;;;;;4949300;28;20451;-47
2021/09/11 07:28:23;;;;;;;12.80;10.97;;;20.00;87.60;;;;;;4947780;28;20463;-47
2021/09/11 07:30:49;;;;;;;14.33;12.10;;;20.00;87.70;;;;;;4947819;28;20462;-47
2021/09/11 07:33:16;;;;;;;15.00;11.20;;;20.10;87.90;;;;;;4944205;28;21087;-47
2021/09/11 07:35:43;;;;;;;14.63;12.70;;;20.10;87.80;;;;;;4950586;28;20459;-47
2021/09/11 07:38:11;;;;;;;13.20;11.80;;;20.10;87.90;;;;;;4950952;28;20465;-47
2021/09/11 07:40:38;;;;;;;12.37;10.47;;;20.20;87.80;;;;;;4949841;28;20790;-47
2021/09/11 07:43:05;;;;;;;14.93;13.00;;;20.20;87.80;;;;;;4950494;28;20841;-47
2021/09/11 07:45:31;;;;;;;13.60;11.53;;;20.30;87.60;;;;;;4948638;28;20443;-47
2021/09/11 07:47:58;;;;;;;11.70;9.77;;;20.30;87.40;;;;;;4948972;28;20842;-47
2021/09/11 07:50:28;;;;;;;17.13;11.37;;;20.30;87.40;;;;;;4946907;28;20824;-47
2021/09/11 07:52:55;;;;;;;11.20;9.20;;;20.50;86.60;;;;;;4947911;28;20582;-47
2021/09/11 07:55:22;;;;;;;12.20;9.40;;;20.60;86.40;;;;;;4945289;29;20530;-47
2021/09/11 07:57:49;;;;;;;15.40;9.60;;;20.90;85.50;;;;;;4952364;28;21249;-47
2021/09/11 08:00:18;;;;;;;13.77;9.30;;;21.10;85.00;;;;;;4951859;28;20459;-47
2021/09/11 08:02:45;;;;;;;11.83;7.10;;;21.30;84.80;;;;;;4951386;28;20558;-47
2021/09/11 08:05:13;;;;;;;10.13;8.63;;;21.40;83.80;;;;;;4949735;28;20471;-47
2021/09/11 08:07:40;;;;;;;8.70;7.50;;;21.50;82.70;;;;;;4951278;28;20461;-46
2021/09/11 08:10:07;;;;;;;9.73;7.90;;;21.60;82.10;;;;;;4946716;28;20456;-47
2021/09/11 08:12:34;;;;;;;9.70;8.00;;;21.70;81.70;;;;;;4951324;28;20491;-46
2021/09/11 08:15:01;;;;;;;9.40;7.93;;;21.90;81.00;;;;;;4952861;28;20452;-47
2021/09/11 08:17:28;;;;;;;8.67;7.13;;;21.90;80.60;;;;;;4951462;28;20463;-47
2021/09/11 08:19:55;;;;;;;9.80;7.03;;;22.00;78.90;;;;;;4944263;28;20897;-47
2021/09/11 08:22:22;;;;;;;10.73;8.27;;;22.00;79.20;;;;;;4944386;28;20656;-47
2021/09/11 08:24:49;;;;;;;7.90;6.90;;;22.10;79.50;;;;;;4949205;29;20446;-47
2021/09/11 08:27:16;;;;;;;7.63;6.83;;;22.20;78.20;;;;;;4949744;28;20999;-47
2021/09/11 08:29:43;;;;;;;12.50;8.03;;;22.10;77.80;;;;;;4951944;28;20451;-47
2021/09/11 08:32:09;;;;;;;9.70;7.10;;;22.00;78.00;;;;;;4949710;28;20466;-47
2021/09/11 08:34:36;;;;;;;8.60;7.60;;;22.00;78.40;;;;;;4949738;28;21042;-48
2021/09/11 08:37:03;;;;;;;8.33;7.53;;;21.90;78.90;;;;;;4946118;28;20485;-47
2021/09/11 08:39:30;;;;;;;8.20;7.40;;;21.90;78.80;;;;;;4948168;28;20464;-47
2021/09/11 08:41:57;;;;;;;9.63;8.13;;;21.80;78.90;;;;;;4946740;28;20470;-47
2021/09/11 08:44:26;;;;;;;9.33;8.30;;;21.80;78.40;;;;;;4946445;28;20542;-47
2021/09/11 08:46:54;;;;;;;8.90;8.00;;;21.80;78.70;;;;;;4944469;29;20538;-47
2021/09/11 08:49:23;;;;;;;9.10;7.70;;;21.70;78.80;;;;;;4949523;28;20451;-47
2021/09/11 08:51:51;;;;;;;11.07;8.10;;;21.80;79.70;;;;;;4958691;28;20458;-47
2021/09/11 08:54:19;;;;;;;11.70;9.27;;;21.80;79.60;;;;;;4945600;28;20496;-47
2021/09/11 08:56:48;;;;;;;10.60;7.80;;;21.80;78.20;;;;;;4949059;28;20944;-47
2021/09/11 08:59:17;;;;;;;7.00;6.17;;;21.80;77.80;;;;;;4946629;28;20444;-47
2021/09/11 09:02:02;;;;;;;9.90;7.43;;;21.70;78.00;;;;;;4946786;28;20976;-47
2021/09/11 09:04:47;;;;;;;9.93;8.40;;;21.70;78.40;;;;;;4944788;28;20503;-47
2021/09/11 09:07:34;;;;;;;9.93;7.90;;;21.70;79.00;;;;;;4948696;28;20550;-47
2021/09/11 09:10:08;;;;;;;10.73;8.70;;;21.70;79.70;;;;;;4948315;28;20823;-47
2021/09/11 09:12:37;;;;;;;11.87;9.87;;;21.70;79.60;;;;;;4949343;28;20835;-47
2021/09/11 09:15:10;;;;;;;11.33;9.73;;;21.70;79.50;;;;;;4945925;28;20460;-47
2021/09/11 09:17:44;;;;;;;10.10;8.53;;;21.70;79.60;;;;;;4950104;28;20470;-47
2021/09/11 09:20:23;;;;;;;10.27;8.30;;;21.80;79.60;;;;;;4947677;29;20442;-47
2021/09/11 09:22:59;;;;;;;12.77;8.93;;;21.80;79.60;;;;;;4947486;28;20458;-47
2021/09/11 09:25:31;;;;;;;9.80;8.20;;;21.80;79.40;;;;;;4944056;28;20458;-47
2021/09/11 09:27:59;;;;;;;13.37;8.13;;;21.80;79.40;;;;;;4949147;28;20450;-47
2021/09/11 09:30:52;;;;;;;9.93;8.20;;;21.90;78.50;;;;;;4946294;28;20463;-47
2021/09/11 09:33:22;;;;;;;12.87;9.30;;;21.90;78.40;;;;;;4950070;28;20480;-47
2021/09/11 09:35:50;;;;;;;10.50;8.67;;;21.80;78.90;;;;;;4950508;28;21024;-47
2021/09/11 09:38:17;;;;;;;9.50;8.10;;;21.90;79.30;;;;;;4948804;29;20877;-47
2021/09/11 09:40:46;;;;;;;8.40;7.37;;;21.90;79.20;;;;;;4950298;28;20526;-47
2021/09/11 09:43:28;;;;;;;8.37;6.47;;;21.90;79.00;;;;;;4949698;28;20470;-47
2021/09/11 09:46:13;;;;;;;6.23;5.63;;;22.00;78.90;;;;;;4951428;28;20513;-47
2021/09/11 09:48:42;;;;;;;7.47;6.53;;;22.00;78.50;;;;;;4949333;28;20844;-47
2021/09/11 09:51:14;;;;;;;6.90;6.10;;;22.10;77.60;;;;;;4950321;28;20461;-47
2021/09/11 09:53:43;;;;;;;6.70;5.87;;;22.10;77.40;;;;;;4951832;28;20489;-47
2021/09/11 09:56:11;;;;;;;8.17;7.37;;;22.00;77.70;;;;;;4948938;28;20455;-47
2021/09/11 09:58:38;;;;;;;8.73;6.67;;;22.00;77.90;;;;;;4954662;28;20477;-47
2021/09/11 10:01:06;;;;;;;5.90;5.13;;;22.00;78.10;;;;;;4949248;28;20477;-47
2021/09/11 10:03:33;;;;;;;7.23;6.53;;;22.00;78.30;;;;;;4942020;28;20452;-47
2021/09/11 10:06:09;;;;;;;7.20;6.13;;;22.10;77.70;;;;;;4946682;28;20845;-47
2021/09/11 10:08:44;;;;;;;7.23;6.53;;;22.10;77.80;;;;;;4950536;28;20458;-47
2021/09/11 10:11:11;;;;;;;7.33;6.63;;;22.10;78.30;;;;;;4949234;28;20460;-47
2021/09/11 10:13:39;;;;;;;7.07;6.37;;;22.20;77.50;;;;;;4946316;29;21009;-47
2021/09/11 10:16:10;;;;;;;7.90;7.00;;;22.40;76.70;;;;;;4950356;28;20451;-47
2021/09/11 10:18:36;;;;;;;7.70;6.27;;;22.50;76.20;;;;;;4949887;28;20513;-47
2021/09/11 10:21:27;;;;;;;12.43;9.63;;;22.50;76.20;;;;;;4953468;28;21032;-47
2021/09/11 10:23:57;;;;;;;9.40;6.87;;;22.60;76.30;;;;;;4945779;28;20477;-47
2021/09/11 10:26:47;;;;;;;9.83;7.70;;;22.70;75.00;;;;;;4953892;28;20805;-47
2021/09/11 10:29:32;;;;;;;10.70;6.90;;;22.70;75.20;;;;;;4951146;28;20444;-47
2021/09/11 10:32:01;;;;;;;8.40;7.23;;;22.80;75.10;;;;;;4950097;29;20518;-47
2021/09/11 10:34:53;;;;;;;10.23;7.20;;;22.80;75.30;;;;;;4950802;28;20485;-47
2021/09/11 10:37:28;;;;;;;8.23;6.57;;;22.80;74.70;;;;;;4931659;29;20982;-47
2021/09/11 10:40:35;;;;;;;11.33;8.80;;;22.80;74.60;;;;;;4951334;28;20450;-47
2021/09/11 10:43:05;;;;;;;11.23;8.10;;;22.80;75.00;;;;;;4949802;28;20455;-47
2021/09/11 10:45:53;;;;;;;8.90;7.20;;;22.80;75.70;;;;;;4952349;28;20979;-47
2021/09/11 10:48:45;;;;;;;10.47;9.10;;;22.80;75.00;;;;;;4949944;28;20477;-47
2021/09/11 10:51:29;;;;;;;10.27;7.00;;;22.90;74.60;;;;;;4946233;28;20458;-47
2021/09/11 10:54:26;;;;;;;6.70;5.10;;;22.80;75.50;;;;;;4947955;28;21015;-47
2021/09/11 10:57:14;;;;;;;2.67;2.30;;;22.80;75.50;;;;;;4946057;28;20450;-47
2021/09/11 10:59:50;;;;;;;2.13;1.93;;;22.60;75.90;;;;;;4949407;28;20449;-47
2021/09/11 11:02:37;;;;;;;2.00;1.60;;;22.50;76.80;;;;;;4953887;28;20457;-47
2021/09/11 11:05:13;;;;;;;3.03;1.97;;;22.30;77.60;;;;;;4951677;28;20458;-47
2021/09/11 11:07:42;;;;;;;3.00;2.70;;;22.20;78.50;;;;;;4949581;28;21068;-47
2021/09/11 11:10:12;;;;;;;3.20;2.50;;;22.10;79.30;;;;;;4952795;28;20962;-47
2021/09/11 11:12:41;;;;;;;4.40;2.63;;;22.10;80.20;;;;;;4948394;28;20446;-46
2021/09/11 11:15:16;;;;;;;3.63;3.07;;;22.10;80.60;;;;;;4951033;28;20516;-47
2021/09/11 11:17:48;;;;;;;4.20;2.57;;;22.10;81.50;;;;;;4949812;28;20442;-47
2021/09/11 11:20:24;;;;;;;4.73;2.70;;;22.30;80.90;;;;;;4947931;28;20975;-47
2021/09/11 11:22:51;;;;;;;4.00;2.53;;;22.40;81.10;;;;;;4951746;28;20446;-47
2021/09/11 11:25:35;;;;;;;3.80;2.73;;;22.50;80.50;;;;;;4953483;28;20451;-47
2021/09/11 11:28:21;;;;;;;2.43;1.93;;;22.50;80.10;;;;;;4949412;29;20450;-47
2021/09/11 11:30:50;;;;;;;2.63;1.70;;;22.60;79.30;;;;;;4951309;28;20447;-47
2021/09/11 11:33:17;;;;;;;2.03;1.87;;;22.70;77.80;;;;;;4948814;28;20538;-47
2021/09/11 11:35:44;;;;;;;2.43;2.23;;;22.80;77.00;;;;;;4951663;28;20458;-47
2021/09/11 11:38:10;;;;;;;2.53;2.33;;;22.90;76.60;;;;;;4948073;28;20463;-47
2021/09/11 11:40:37;;;;;;;2.30;2.10;;;22.90;76.70;;;;;;4954483;28;20457;-47
2021/09/11 11:43:06;;;;;;;3.60;2.73;;;22.90;76.50;;;;;;4947273;28;20594;-47
2021/09/11 11:45:34;;;;;;;3.20;2.90;;;22.90;76.70;;;;;;4951393;28;20478;-47
2021/09/11 11:48:16;;;;;;;3.60;2.87;;;22.90;77.00;;;;;;4951664;28;20446;-47
2021/09/11 11:50:46;;;;;;;3.30;3.00;;;22.90;77.00;;;;;;4950085;28;20890;-47
2021/09/11 11:53:18;;;;;;;3.20;2.87;;;22.90;77.10;;;;;;4951872;28;20473;-47
2021/09/11 11:55:49;;;;;;;4.17;3.77;;;22.90;76.80;;;;;;4952461;28;20813;-47
2021/09/11 11:58:20;;;;;;;6.17;4.00;;;22.90;77.20;;;;;;4951549;28;20530;-47
2021/09/11 12:00:49;;;;;;;5.07;4.63;;;22.90;77.50;;;;;;4948342;28;20541;-47
2021/09/11 12:03:36;;;;;;;4.90;4.40;;;22.90;77.40;;;;;;4948679;28;20443;-47
2021/09/11 12:06:09;;;;;;;4.60;4.10;;;23.00;77.90;;;;;;4948816;28;20724;-47
2021/09/11 12:08:39;;;;;;;4.27;3.87;;;23.00;77.80;;;;;;4949506;28;20461;-47
2021/09/11 12:11:15;;;;;;;4.93;4.43;;;23.10;76.60;;;;;;4952293;28;20538;-48
2021/09/11 12:13:44;;;;;;;5.10;4.20;;;23.00;76.10;;;;;;4949694;28;20498;-47
2021/09/11 12:16:11;;;;;;;4.33;3.93;;;23.00;76.10;;;;;;4948716;28;20466;-47
2021/09/11 12:18:38;;;;;;;4.07;3.67;;;22.90;76.20;;;;;;4950485;28;20466;-47
2021/09/11 12:21:11;;;;;;;5.23;3.77;;;22.90;76.10;;;;;;4950195;28;20541;-47
2021/09/11 12:23:39;;;;;;;4.93;4.17;;;23.00;75.20;;;;;;4946461;29;20459;-47
2021/09/11 12:26:16;;;;;;;9.10;4.73;;;22.90;75.80;;;;;;4945349;28;20450;-47
2021/09/11 12:28:52;;;;;;;4.97;3.47;;;23.00;76.10;;;;;;4946316;28;20457;-47
2021/09/11 12:31:19;;;;;;;3.07;2.77;;;23.00;75.70;;;;;;4950891;28;20959;-47
2021/09/11 12:33:54;;;;;;;3.03;2.73;;;23.00;74.80;;;;;;4952049;28;20992;-47
2021/09/11 12:36:32;;;;;;;4.53;2.87;;;23.00;74.30;;;;;;4947457;28;20463;-47
2021/09/11 12:39:26;;;;;;;2.73;2.20;;;23.10;74.20;;;;;;4948650;28;20545;-47
2021/09/11 12:41:57;;;;;;;4.03;2.60;;;23.20;73.90;;;;;;4945384;28;20454;-47
2021/09/11 12:44:27;;;;;;;3.20;2.87;;;23.30;72.40;;;;;;4947766;28;20981;-47